DAAE

Soummam Airport

Béjaïa, Algeria
METAR DAAE 140000Z 30007KT 9999 SCT023 SCT043 13/08 Q1008
Observed Flight Rules
Dec-14 @ 00:00 UTC (an hour ago) Visual Flight Rules
Wind Visibility Clouds
300° at 7 knots 10,000+ meters
  • Scattered at 2,300' AGL
  • Scattered at 4,300' AGL
Temperatures Readings
Current 13°C / 55°F
Dewpoint 8°C / 46°F
Humidity 72%
Altimeter 29.76" Hg
Pressure 1008 hPa
Elevation 2
METAR DAAE 140000Z 30007KT 9999 SCT023 SCT043 13/08 Q1008
Observed Flight Rules
Dec-14 @ 00:00 UTC
(an hour ago)
VFR
Wind Visibility
300° at 7 knots 10,000+ meters
Clouds
  • Scattered at 2,300' AGL
  • Scattered at 4,300' AGL
Temperature Dewpoint
13°C / 55°F 8°C / 46°F
Humidity Altimeter Pressure
72% 29.76" Hg 1008 hPa